Latest Weather Observations for Warracknabeal Airport

IDV60801

Issued at 6:42 am EDT Saturday 19 October 2019 (issued every 10 minutes, with the page automatically refreshed every 10 minutes)

About weather observations | Map of weather stations | Latest weather observations for VIC | Other Formats
Station Details ID: 078018 Name: WARRACKNABEAL AIRPORT Lat: -36.32 Lon: 142.42 Height: 118.3 m
Data from the previous 72 hours. | See also: Recent months at Warracknabeal Airport
Date/Time
EDT
Temp
°C
App
Temp
°C
Dew
Point
°C
Rel
Hum
%
Delta-T
°C
Wind Press
QNH
hPa
Press
MSL
hPa
Rain since
9am
mm
Dir  Spd
km/h
Gust
km/h
Spd
kts
Gust
kts
19/06:30am 8.1 5.2 8.0 99 0.0 W 13 19 7 10 1015.9 1015.9 0.2
19/06:00am 8.1 5.6 8.0 99 0.0 WSW 11 17 6 9 1015.4 1015.4 0.2
19/05:30am 8.4 4.7 8.0 97 0.2 WNW 17 26 9 14 1015.3 1015.3 0.2
19/05:00am 8.1 5.1 7.5 96 0.3 WNW 13 19 7 10 1015.0 1015.0 0.0
19/04:30am 8.0 5.0 7.6 97 0.2 WNW 13 17 7 9 1014.7 1014.7 0.0
19/04:00am 7.9 4.9 7.5 97 0.2 WNW 13 19 7 10 1015.0 1015.0 0.0
19/03:30am 7.8 5.1 7.2 96 0.3 W 11 15 6 8 1014.9 1014.9 0.0
19/03:00am 8.0 5.2 7.1 94 0.4 W 11 15 6 8 1015.0 1015.0 0.0
19/02:30am 8.3 5.2 7.2 93 0.5 W 13 17 7 9 1015.0 1015.0 0.0
19/02:00am 8.0 5.2 7.1 94 0.4 W 11 15 6 8 1015.1 1015.1 0.0
19/01:30am 7.5 4.7 6.9 96 0.3 W 11 13 6 7 1015.2 1015.2 0.0
19/01:00am 7.6 5.2 7.2 97 0.2 W 9 13 5 7 1015.3 1015.3 0.0
19/12:30am 8.0 5.6 7.1 94 0.4 W 9 11 5 6 1015.2 1015.2 0.0
19/12:00am 9.0 6.7 7.6 91 0.7 W 9 13 5 7 1015.1 1015.1 0.0
 
Date/Time
EDT
Temp
°C
App
Temp
°C
Dew
Point
°C
Rel
Hum
%
Delta-T
°C
Wind Press
QNH
hPa
Press
MSL
hPa
Rain since
9am
mm
Dir  Spd
km/h
Gust
km/h
Spd
kts
Gust
kts
18/11:30pm 10.2 8.1 8.1 87 1.0 W 9 13 5 7 1015.4 1015.4 0.0
18/11:00pm 11.4 8.7 8.8 84 1.3 W 13 20 7 11 1015.5 1015.5 0.0
18/10:30pm 11.8 8.5 8.1 78 1.8 W 15 20 8 11 1015.4 1015.4 0.0
18/10:00pm 12.1 8.9 8.4 78 1.8 W 15 22 8 12 1015.1 1015.1 0.0
18/09:30pm 12.2 8.6 8.5 78 1.8 W 17 22 9 12 1015.1 1015.1 0.0
18/09:00pm 12.9 9.0 8.8 76 2.1 W 19 24 10 13 1014.9 1014.9 0.0
18/08:30pm 13.0 8.9 8.5 74 2.3 W 20 28 11 15 1014.4 1014.4 0.0
18/08:00pm 13.7 7.2 8.1 69 2.8 W 32 44 17 24 1014.1 1014.1 0.0
18/07:30pm 14.3 8.0 9.1 71 2.7 WSW 32 43 17 23 1013.8 1013.8 0.0
18/07:00pm 15.4 7.3 10.2 71 2.7 WSW 43 61 23 33 1013.4 1013.4 0.0
18/06:40pm 18.3 10.5 6.8 47 5.8 W 37 57 20 31 1012.6 1012.6 0.0
18/06:30pm 18.9 11.8 6.4 44 6.3 W 33 50 18 27 1012.3 1012.2 0.0
18/06:00pm 19.2 11.9 5.6 41 6.7 W 33 52 18 28 1012.2 1012.1 0.0
18/05:46pm 20.2 13.4 5.1 37 7.4 W 30 50 16 27 1012.0 1011.9 0.0
18/05:30pm 20.4 13.3 5.6 38 7.4 WNW 32 46 17 25 1012.0 1011.9 0.0
18/05:08pm 20.8 14.1 5.6 37 7.6 WNW 30 48 16 26 1011.9 1011.8 0.0
18/05:00pm 20.8 13.1 5.2 36 7.7 W 35 48 19 26 1012.0 1011.9 0.0
18/04:31pm 21.3 13.8 4.4 33 8.3 W 33 54 18 29 1011.8 1011.7 0.0
18/04:30pm 21.8 14.6 4.8 33 8.4 W 32 46 17 25 1011.8 1011.7 0.0
18/04:02pm 21.3 13.0 2.1 28 9.0 WNW 35 54 19 29 1011.7 1011.6 0.0
18/04:00pm 21.7 13.7 1.9 27 9.3 W 33 50 18 27 1011.8 1011.7 0.0
18/03:30pm 21.9 13.8 1.0 25 9.6 WNW 33 54 18 29 1011.9 1011.8 0.0
18/03:04pm 22.2 13.7 0.7 24 9.9 WNW 35 56 19 30 1012.1 1012.0 0.0
18/03:00pm 22.5 14.6 0.9 24 10.0 WNW 32 44 17 24 1012.2 1012.1 0.0
18/02:42pm 22.0 13.4 0.5 24 9.8 NW 35 56 19 30 1012.5 1012.4 0.0
18/02:30pm 21.4 13.0 1.7 27 9.2 NW 35 52 19 28 1012.7 1012.7 0.0
18/02:19pm 21.3 12.8 1.0 26 9.3 NW 35 61 19 33 1012.9 1012.9 0.0
18/02:00pm 20.8 12.4 1.6 28 8.9 WNW 35 50 19 27 1013.4 1013.4 0.0
18/01:41pm 20.4 12.6 2.7 31 8.3 NW 33 52 18 28 1013.7 1013.7 0.0
18/01:30pm 20.2 11.7 3.0 32 8.1 NW 37 54 20 29 1013.9 1013.9 0.0
18/01:03pm 19.4 11.3 3.2 34 7.6 NW 35 54 19 29 1014.4 1014.4 0.0
18/01:00pm 19.9 11.6 4.0 35 7.6 NW 37 54 20 29 1014.5 1014.5 0.0
18/12:36pm 18.8 12.3 4.6 39 6.9 NNW 28 46 15 25 1014.8 1014.8 0.0
18/12:30pm 18.1 11.7 5.0 42 6.3 NW 28 39 15 21 1015.0 1015.0 0.0
18/12:00pm 16.2 9.3 4.6 46 5.5 NNW 30 41 16 22 1015.7 1015.7 0.0
18/11:30am 15.4 8.2 5.0 50 4.9 NW 32 46 17 25 1016.0 1016.0 0.0
18/11:00am 16.0 10.1 5.6 50 5.0 NNW 26 35 14 19 1016.3 1016.3 0.0
18/10:30am 14.9 7.8 5.7 54 4.4 NNW 32 43 17 23 1016.7 1016.7 0.0
18/10:00am 13.9 8.0 6.0 59 3.8 NNW 26 35 14 19 1016.9 1016.9 0.0
18/09:30am 12.0 6.1 5.6 65 3.0 N 26 35 14 19 1016.9 1016.9 0.0
18/09:00am 10.5 5.7 5.5 71 2.3 N 20 28 11 15 1016.8 1016.8 0.0
18/08:30am 7.6 3.2 4.7 82 1.3 NNW 17 20 9 11 1016.7 1016.7 0.0
18/08:00am 5.5 1.9 5.1 97 0.2 N 13 17 7 9 1016.6 1016.6 0.0
18/07:30am 3.3 -0.6 3.2 99 0.0 N 13 15 7 8 1016.3 1016.3 0.0
18/07:00am 0.7 -3.7 0.6 99 0.0 NW 13 17 7 9 1016.3 1016.3 0.0
18/06:30am 0.3 -3.0 0.2 99 0.0 NW 7 9 4 5 1016.6 1016.6 0.0
18/06:00am 0.4 -2.9 0.3 99 0.0 NW 7 7 4 4 1016.5 1016.5 0.0
18/05:30am 0.4 -2.7 0.3 99 0.0 NW 6 7 3 4 1016.5 1016.5 0.0
18/05:00am 0.4 -2.9 0.3 99 0.0 NW 7 9 4 5 1016.5 1016.5 0.0
18/04:30am 1.1 -2.4 1.0 99 0.0 NW 9 11 5 6 1016.9 1016.9 0.0
18/04:00am 0.8 -2.4 0.7 99 0.0 NW 7 7 4 4 1016.9 1016.9 0.0
18/03:30am 0.9 -2.1 0.8 99 0.0 NW 6 7 3 4 1017.3 1017.2 0.0
18/03:00am 1.3 -1.8 1.2 99 0.0 NW 7 9 4 5 1017.5 1017.4 0.0
18/02:30am 2.0 -1.0 1.9 99 0.0 NW 7 9 4 5 1017.5 1017.4 0.0
18/02:00am 1.6 -1.5 1.5 99 0.0 NW 7 7 4 4 1017.6 1017.5 0.0
18/01:30am 1.7 -1.4 1.3 97 0.2 NW 7 9 4 5 1017.9 1017.8 0.0
18/01:00am 2.5 -0.9 1.8 95 0.3 NW 9 11 5 6 1018.1 1018.0 0.0
18/12:30am 3.7 0.5 2.8 94 0.4 NW 9 11 5 6 1018.3 1018.2 0.0
18/12:00am 4.0 1.1 2.5 90 0.6 NW 7 9 4 5 1018.4 1018.3 0.0
 
Date/Time
EDT
Temp
°C
App
Temp
°C
Dew
Point
°C
Rel
Hum
%
Delta-T
°C
Wind Press
QNH
hPa
Press
MSL
hPa
Rain since
9am
mm
Dir  Spd
km/h
Gust
km/h
Spd
kts
Gust
kts
17/11:30pm 4.6 1.4 3.1 90 0.6 NW 9 13 5 7 1018.3 1018.2 0.0
17/11:00pm 5.5 2.3 3.3 86 0.9 NW 9 11 5 6 1018.3 1018.2 0.0
17/10:30pm 5.5 2.7 3.2 85 1.0 NW 7 9 4 5 1018.3 1018.2 0.0
17/10:00pm 6.6 3.5 3.8 82 1.2 WSW 9 15 5 8 1018.1 1018.0 0.0
17/09:30pm 7.5 4.0 3.7 77 1.6 SW 11 13 6 7 1018.0 1017.9 0.0
17/09:00pm 8.9 5.1 3.7 70 2.3 SW 13 17 7 9 1017.9 1017.8 0.0
17/08:30pm 9.8 5.6 3.8 66 2.6 SW 15 19 8 10 1017.5 1017.4 0.0
17/08:00pm 10.7 6.1 3.7 62 3.1 SW 17 19 9 10 1017.1 1017.0 0.0
17/07:30pm 12.7 7.7 3.4 53 4.2 SW 19 26 10 14 1016.7 1016.7 0.0
17/07:00pm 14.0 7.2 2.9 47 5.0 WSW 28 35 15 19 1016.3 1016.3 0.0
17/06:30pm 15.0 8.2 3.2 45 5.4 WSW 28 41 15 22 1015.8 1015.8 0.0
17/06:00pm 15.8 8.3 3.3 43 5.7 WSW 32 44 17 24 1015.4 1015.4 0.0
17/05:30pm 16.2 7.9 1.9 38 6.4 WSW 35 48 19 26 1014.8 1014.8 0.0
17/05:11pm 16.7 8.8 2.0 37 6.6 WSW 33 52 18 28 1014.6 1014.6 0.0
17/05:00pm 16.8 8.6 2.8 39 6.4 WSW 35 48 19 26 1014.5 1014.5 0.0
17/04:30pm 15.9 7.9 3.7 44 5.7 WSW 35 48 19 26 1014.5 1014.5 0.0
17/04:00pm 16.4 7.7 2.1 38 6.4 WSW 37 48 20 26 1014.2 1014.2 0.0
17/03:30pm 16.1 7.7 3.9 44 5.7 WSW 37 48 20 26 1014.3 1014.3 0.0
17/03:00pm 17.0 8.3 4.0 42 6.1 WSW 39 61 21 33 1014.4 1014.4 0.0
17/02:30pm 15.9 7.6 4.3 46 5.4 W 37 56 20 30 1014.3 1014.3 0.0
17/02:15pm 16.6 9.1 4.6 45 5.7 W 33 52 18 28 1014.3 1014.3 0.0
17/02:00pm 15.9 7.7 4.6 47 5.3 WSW 37 54 20 29 1014.5 1014.5 0.0
17/01:37pm 16.0 7.5 3.4 43 5.8 WSW 37 61 20 33 1014.3 1014.3 0.0
17/01:30pm 15.2 6.7 3.4 45 5.4 WSW 37 52 20 28 1014.4 1014.4 0.0
17/01:00pm 14.6 6.5 3.4 47 5.1 W 35 54 19 29 1014.4 1014.4 0.0
17/12:30pm 15.8 6.6 3.6 44 5.6 W 41 59 22 32 1014.4 1014.4 0.0
17/12:23pm 15.2 6.2 2.7 43 5.6 W 39 59 21 32 1014.3 1014.3 0.0
17/12:00pm 13.7 5.7 4.0 52 4.4 WSW 35 46 19 25 1014.4 1014.4 0.0
17/11:31am 13.5 5.5 3.6 51 4.5 WSW 35 56 19 30 1014.1 1014.1 0.0
17/11:30am 13.6 5.8 3.1 49 4.7 WSW 33 50 18 27 1014.1 1014.1 0.0
17/11:02am 13.0 5.0 3.7 53 4.2 W 35 54 19 29 1013.8 1013.8 0.0
17/11:00am 13.3 5.7 3.7 52 4.4 W 33 46 18 25 1013.8 1013.8 0.0
17/10:45am 13.0 4.5 3.1 51 4.4 W 37 57 20 31 1013.9 1013.9 0.0
17/10:30am 12.6 4.4 4.8 59 3.6 WSW 37 50 20 27 1013.9 1013.9 0.0
17/10:20am 11.9 4.7 4.9 62 3.2 WSW 32 52 17 28 1013.8 1013.8 0.0
17/10:00am 11.1 4.0 5.4 68 2.6 W 32 46 17 25 1013.8 1013.8 0.0
17/09:30am 11.0 4.5 6.4 73 2.2 W 30 44 16 24 1013.5 1013.5 0.0
17/09:00am 10.1 4.8 6.8 80 1.6 W 24 33 13 18 1013.3 1013.3 0.6
17/08:30am 8.6 4.0 6.4 86 1.0 W 20 30 11 16 1012.9 1012.9 0.6
17/08:00am 7.5 2.8 6.1 91 0.6 WNW 20 30 11 16 1012.5 1012.4 0.6
17/07:30am 6.4 2.2 5.7 95 0.3 WNW 17 24 9 13 1012.0 1011.9 0.6
17/07:00am 5.6 1.3 5.2 97 0.2 WNW 17 24 9 13 1011.4 1011.3 0.6
17/06:30am 5.7 1.8 5.3 97 0.2 WNW 15 20 8 11 1011.2 1011.1 0.6
17/06:00am 6.3 2.1 5.7 96 0.3 WNW 17 22 9 12 1010.9 1010.8 0.6
17/05:30am 6.7 2.6 6.1 96 0.3 WNW 17 22 9 12 1010.5 1010.4 0.6
17/05:00am 7.1 2.7 6.5 96 0.3 WNW 19 24 10 13 1010.4 1010.3 0.6
17/04:30am 7.5 3.6 7.2 98 0.1 WNW 17 24 9 13 1010.2 1010.1 0.6
17/04:00am 8.1 3.7 7.5 96 0.3 WNW 20 28 11 15 1010.2 1010.1 0.6
17/03:30am 8.5 4.5 8.1 97 0.2 WNW 19 28 10 15 1010.5 1010.4 0.6
17/03:00am 8.8 4.6 8.4 97 0.2 NW 20 35 11 19 1010.5 1010.4 0.4
17/02:30am 9.1 5.2 8.8 98 0.1 NW 19 24 10 13 1010.7 1010.6 0.4
17/02:00am 9.6 5.8 9.1 97 0.2 NW 19 24 10 13 1010.7 1010.6 0.4
17/01:30am 9.7 6.3 9.2 97 0.2 WNW 17 22 9 12 1011.1 1011.0 0.4
17/01:00am 9.7 6.2 8.8 94 0.4 WNW 17 28 9 15 1011.3 1011.2 0.4
17/12:30am 9.6 6.9 8.8 95 0.4 WNW 13 17 7 9 1011.2 1011.1 0.4
17/12:00am 9.8 6.2 8.4 91 0.7 WNW 17 24 9 13 1011.3 1011.2 0.4
 
Date/Time
EDT
Temp
°C
App
Temp
°C
Dew
Point
°C
Rel
Hum
%
Delta-T
°C
Wind Press
QNH
hPa
Press
MSL
hPa
Rain since
9am
mm
Dir  Spd
km/h
Gust
km/h
Spd
kts
Gust
kts
16/11:30pm 10.0 6.4 6.9 81 1.5 WNW 15 26 8 14 1011.5 1011.4 0.4
16/11:00pm 8.9 6.3 6.2 83 1.2 WNW 9 13 5 7 1010.9 1010.8 0.4
16/10:30pm 9.9 6.1 5.7 75 1.9 WNW 15 20 8 11 1011.3 1011.2 0.4
16/10:00pm 10.3 6.1 5.7 73 2.1 WNW 17 22 9 12 1011.1 1011.0 0.4
16/09:30pm 10.8 7.4 6.0 72 2.2 W 13 19 7 10 1011.1 1011.0 0.4
16/09:00pm 11.6 7.8 5.9 68 2.7 W 15 20 8 11 1011.0 1010.9 0.4
16/08:30pm 12.5 7.9 5.7 63 3.2 W 19 24 10 13 1010.7 1010.6 0.4
16/08:00pm 13.7 9.5 5.8 59 3.8 W 17 24 9 13 1010.4 1010.3 0.4
16/07:30pm 15.7 10.6 6.2 53 4.6 W 22 33 12 18 1010.0 1009.9 0.4
16/07:00pm 16.6 11.7 7.0 53 4.8 W 22 30 12 16 1009.6 1009.5 0.4
16/06:30pm 18.2 12.7 5.8 44 6.1 W 24 37 13 20 1009.1 1009.0 0.4
16/06:03pm 18.9 13.2 8.3 50 5.5 W 28 46 15 25 1008.8 1008.7 0.4
16/06:00pm 18.6 13.0 8.8 53 5.1 W 28 39 15 21 1008.8 1008.7 0.4
16/05:30pm 17.8 13.7 10.2 61 4.1 W 22 35 12 19 1008.6 1008.5 0.4
16/05:00pm 19.0 14.1 9.8 55 4.9 W 26 35 14 19 1008.5 1008.4 0.4
16/04:30pm 19.0 14.0 11.1 60 4.3 WNW 28 39 15 21 1008.5 1008.4 0.4
16/04:00pm 18.3 15.1 11.8 66 3.6 WNW 20 28 11 15 1008.9 1008.8 0.4
16/03:30pm 18.1 13.9 11.0 63 3.9 W 24 33 13 18 1009.3 1009.2 0.4
16/03:00pm 18.2 14.9 11.7 66 3.6 W 20 32 11 17 1009.9 1009.8 0.4
16/02:30pm 17.9 14.8 12.1 69 3.2 WNW 20 28 11 15 1010.4 1010.3 0.4
16/02:00pm 16.6 14.1 12.4 76 2.3 WNW 17 24 9 13 1010.8 1010.7 0.4
16/01:30pm 15.4 12.9 12.3 82 1.7 WNW 17 22 9 12 1010.9 1010.8 0.4
16/01:00pm 14.8 12.9 13.0 89 1.0 W 15 22 8 12 1011.0 1010.9 0.4
16/12:30pm 14.8 12.4 12.7 87 1.2 W 17 24 9 13 1011.1 1011.0 0.4
16/12:00pm 14.4 10.7 12.6 89 1.0 W 24 35 13 19 1011.3 1011.2 0.4
16/11:30am 14.4 11.5 12.4 88 1.1 W 19 26 10 14 1011.4 1011.3 0.4
16/11:00am 13.7 11.2 12.3 91 0.8 WNW 17 24 9 13 1011.9 1011.8 0.2
16/10:30am 13.2 11.0 12.1 93 0.6 NW 15 22 8 12 1011.8 1011.7 0.2
16/10:00am 12.9 10.9 12.6 98 0.2 NNW 15 20 8 11 1012.0 1011.9 0.2
16/09:30am 12.9 11.3 12.7 99 0.1 NNW 13 19 7 10 1012.0 1011.9 0.2
16/09:00am 12.8 11.1 12.6 99 0.1 WNW 13 19 7 10 1011.6 1011.5 4.4
16/08:30am 12.9 12.4 12.7 99 0.1 WSW 7 11 4 6 1011.3 1011.2 4.4
16/08:00am 12.3 11.2 12.1 99 0.1 WSW 9 13 5 7 1011.7 1011.6 4.2
16/07:30am 12.3 11.6 12.1 99 0.1 WSW 7 9 4 5 1011.9 1011.8 4.0
16/07:00am 12.2 11.5 12.0 99 0.1 WSW 7 9 4 5 1011.7 1011.6 2.6

Other formats

Comma delimited format used in spreadsheet applications
http://www.bom.gov.au/fwo/IDV60801/IDV60801.94920.axf

JavaScript Object Notation format (JSON) in row-major order
http://www.bom.gov.au/fwo/IDV60801/IDV60801.94920.json

Data quality

Most of these data are generated automatically and are frequently updated. Quality checks on data are not normally performed. It is possible for incorrect values to appear. Refer to information at About Latest Weather Observations and please check the disclaimer before using these data.